Time;durP1;ratioP1;P1;durP2;ratioP2;P2;SDS_P1;SDS_P2;PMS_P1;PMS_P2;Temp;Humidity;BMP_temperature;BMP_pressure;BME280_temperature;BME280_humidity;BME280_pressure;Samples;Min_cycle;Max_cycle;Signal;HPM_P1;HPM_P2
2024/01/01 00:00:36;;;;;;;39.13;18.60;;;7.70;99.90;;;;;;5000260;28;20491;-74
2024/01/01 00:03:01;;;;;;;29.73;14.43;;;7.80;99.90;;;;;;5002624;28;20063;-73
2024/01/01 00:05:27;;;;;;;28.08;12.88;;;7.80;99.90;;;;;;4962853;28;20038;-74
2024/01/01 00:07:53;;;;;;;27.70;12.93;;;7.80;99.90;;;;;;4988853;28;20066;-74
2024/01/01 00:10:19;;;;;;;23.10;10.77;;;7.80;99.90;;;;;;4989399;28;20113;-73
2024/01/01 00:12:45;;;;;;;27.98;11.55;;;7.90;99.90;;;;;;5059652;28;20094;-74
2024/01/01 00:15:11;;;;;;;28.45;9.63;;;7.90;99.90;;;;;;4981019;28;20065;-74
2024/01/01 00:17:37;;;;;;;12.55;6.85;;;8.00;99.90;;;;;;4998799;28;20050;-73
2024/01/01 00:20:05;;;;;;;32.97;11.75;;;8.00;99.90;;;;;;4998192;28;20053;-74
2024/01/01 00:22:31;;;;;;;16.92;8.60;;;8.00;99.90;;;;;;4997507;28;20046;-74
2024/01/01 00:24:58;;;;;;;22.55;10.73;;;8.00;99.90;;;;;;4993480;28;20052;-74
2024/01/01 00:27:24;;;;;;;29.17;12.07;;;8.00;99.90;;;;;;4980963;28;20093;-73
2024/01/01 00:29:50;;;;;;;22.27;9.25;;;8.00;99.90;;;;;;4999044;28;20042;-74
2024/01/01 00:32:16;;;;;;;23.92;8.65;;;8.10;99.90;;;;;;5012160;28;20053;-73
2024/01/01 00:34:44;;;;;;;16.63;7.10;;;8.10;99.90;;;;;;4985644;28;20045;-73
2024/01/01 00:37:10;;;;;;;16.85;8.00;;;8.10;99.90;;;;;;5017795;28;20138;-73
2024/01/01 00:39:36;;;;;;;24.20;12.15;;;8.10;99.90;;;;;;4997980;28;20454;-74
2024/01/01 00:42:02;;;;;;;18.73;8.15;;;8.20;99.90;;;;;;5013738;28;20071;-73
2024/01/01 00:44:27;;;;;;;21.35;7.78;;;8.10;99.90;;;;;;5000074;28;20034;-73
2024/01/01 00:46:53;;;;;;;17.35;7.53;;;8.10;99.90;;;;;;4969261;28;20038;-73
2024/01/01 00:49:19;;;;;;;20.33;7.57;;;8.20;99.90;;;;;;5000140;28;20049;-74
2024/01/01 00:51:45;;;;;;;13.75;6.80;;;8.20;99.90;;;;;;4969386;28;20485;-73
2024/01/01 00:54:11;;;;;;;14.60;6.40;;;8.10;99.90;;;;;;4982273;28;20135;-73
2024/01/01 00:56:37;;;;;;;15.00;6.93;;;8.20;99.90;;;;;;5016759;28;20110;-75
2024/01/01 00:59:02;;;;;;;21.25;8.30;;;8.20;99.90;;;;;;5000969;28;20066;-75
2024/01/01 01:01:28;;;;;;;22.63;8.18;;;8.20;99.90;;;;;;4999941;28;20294;-75
2024/01/01 01:03:54;;;;;;;15.05;6.78;;;8.20;99.90;;;;;;4985935;28;20046;-75
2024/01/01 01:06:20;;;;;;;8.93;5.47;;;8.20;99.90;;;;;;4965469;28;20088;-75
2024/01/01 01:08:46;;;;;;;13.40;6.60;;;8.10;99.90;;;;;;5016362;28;20046;-75
2024/01/01 01:11:12;;;;;;;24.00;6.40;;;8.20;99.90;;;;;;5018143;28;20101;-75
2024/01/01 01:13:37;;;;;;;14.57;6.78;;;8.20;99.90;;;;;;4985275;28;20045;-75
2024/01/01 01:16:03;;;;;;;10.38;4.80;;;8.10;99.90;;;;;;4982426;28;20050;-75
2024/01/01 01:18:29;;;;;;;20.58;6.55;;;8.20;99.90;;;;;;4979569;28;20053;-75
2024/01/01 01:20:55;;;;;;;20.58;7.30;;;8.20;99.90;;;;;;5008870;28;20046;-75
2024/01/01 01:23:21;;;;;;;18.00;7.10;;;8.20;99.90;;;;;;4998523;28;20106;-75
2024/01/01 01:25:46;;;;;;;20.23;7.55;;;8.20;99.90;;;;;;4966230;28;20634;-75
2024/01/01 01:28:21;;;;;;;17.25;8.07;;;8.20;99.90;;;;;;4997047;28;20049;-75
2024/01/01 01:30:47;;;;;;;18.52;7.95;;;8.20;99.90;;;;;;5001632;28;20090;-75
2024/01/01 01:33:13;;;;;;;18.90;8.27;;;8.20;99.90;;;;;;4985414;28;20573;-75
2024/01/01 01:35:38;;;;;;;19.58;8.68;;;8.20;99.90;;;;;;4994919;28;20043;-75
2024/01/01 01:38:04;;;;;;;22.40;7.35;;;8.20;99.90;;;;;;4984852;28;20048;-74
2024/01/01 01:40:30;;;;;;;22.95;8.18;;;8.20;99.90;;;;;;4984413;28;20050;-74
2024/01/01 01:42:55;;;;;;;20.15;8.45;;;8.20;99.90;;;;;;5024255;28;20414;-75
2024/01/01 01:45:22;;;;;;;18.02;8.88;;;8.20;99.90;;;;;;4967610;28;20081;-75
2024/01/01 01:47:48;;;;;;;19.63;8.35;;;8.20;99.90;;;;;;4984564;28;20079;-74
2024/01/01 01:50:15;;;;;;;22.45;8.38;;;8.10;99.90;;;;;;4969423;28;20070;-75
2024/01/01 01:52:43;;;;;;;15.50;9.05;;;8.20;99.90;;;;;;4977733;28;20069;-74
2024/01/01 01:55:10;;;;;;;18.77;9.23;;;8.10;99.90;;;;;;5000352;28;20052;-75
2024/01/01 01:57:36;;;;;;;19.77;9.48;;;8.10;99.90;;;;;;5014705;28;20038;-74
2024/01/01 02:00:04;;;;;;;22.25;9.13;;;8.10;99.90;;;;;;5016801;28;20046;-74
2024/01/01 02:02:34;;;;;;;23.42;10.70;;;8.10;99.90;;;;;;4968439;28;20047;-75
2024/01/01 02:05:01;;;;;;;23.50;7.32;;;8.10;99.90;;;;;;4994354;28;20073;-75
2024/01/01 02:07:26;;;;;;;17.05;7.38;;;8.10;99.90;;;;;;5072343;28;20049;-75
2024/01/01 02:09:52;;;;;;;12.63;6.13;;;8.10;99.90;;;;;;4981360;28;20053;-75
2024/01/01 02:12:18;;;;;;;9.88;6.72;;;8.10;99.90;;;;;;5000882;28;20041;-75
2024/01/01 02:14:44;;;;;;;17.90;7.18;;;8.10;99.90;;;;;;5000017;28;20050;-74
2024/01/01 02:17:09;;;;;;;14.55;6.65;;;8.10;99.90;;;;;;4983098;28;20562;-74
2024/01/01 02:19:35;;;;;;;11.55;5.20;;;8.00;99.90;;;;;;5015443;28;20054;-74
2024/01/01 02:22:01;;;;;;;6.07;3.63;;;8.00;99.90;;;;;;5017629;28;20054;-75
2024/01/01 02:24:27;;;;;;;8.82;4.72;;;8.00;99.90;;;;;;4983664;28;20046;-74
2024/01/01 02:26:52;;;;;;;14.63;5.03;;;8.00;99.90;;;;;;4999779;28;20049;-74
2024/01/01 02:29:18;;;;;;;10.70;4.60;;;8.00;99.90;;;;;;4983344;28;20106;-75
2024/01/01 02:31:45;;;;;;;10.68;3.88;;;7.90;99.90;;;;;;4972711;28;20038;-75
2024/01/01 02:34:11;;;;;;;13.48;4.47;;;7.90;99.90;;;;;;4999097;28;20101;-75
2024/01/01 02:36:41;;;;;;;13.55;3.35;;;7.80;99.90;;;;;;4998290;28;20077;-74
2024/01/01 02:39:09;;;;;;;8.90;3.80;;;7.80;99.90;;;;;;4998390;28;20050;-75
2024/01/01 02:41:36;;;;;;;5.38;2.78;;;7.70;99.90;;;;;;4993683;28;20585;-75
2024/01/01 02:44:03;;;;;;;6.85;3.25;;;7.70;99.90;;;;;;4999616;28;20085;-75
2024/01/01 02:46:28;;;;;;;11.40;2.90;;;7.60;99.90;;;;;;5016167;28;20046;-75
2024/01/01 02:48:54;;;;;;;3.60;2.15;;;7.50;99.90;;;;;;4999275;28;20103;-75
2024/01/01 02:51:20;;;;;;;5.00;2.72;;;7.50;99.90;;;;;;4981264;28;20069;-75
2024/01/01 02:53:45;;;;;;;6.32;2.05;;;7.50;99.90;;;;;;4982194;28;20049;-75
2024/01/01 02:56:24;;;;;;;3.95;1.95;;;7.50;99.90;;;;;;5016608;28;20046;-74
2024/01/01 02:58:50;;;;;;;2.58;1.38;;;7.50;99.90;;;;;;5016437;28;20497;-75
2024/01/01 03:01:16;;;;;;;2.53;1.17;;;7.50;99.90;;;;;;5013552;28;20192;-75
2024/01/01 03:03:42;;;;;;;2.78;1.42;;;7.50;99.90;;;;;;4967626;28;20077;-75
2024/01/01 03:06:08;;;;;;;2.22;1.98;;;7.50;99.90;;;;;;4979412;28;20039;-75
2024/01/01 03:08:38;;;;;;;5.03;1.75;;;7.50;99.90;;;;;;4981123;28;20049;-75
2024/01/01 03:11:05;;;;;;;2.90;1.20;;;7.50;99.90;;;;;;4998087;28;20109;-75
2024/01/01 03:13:30;;;;;;;3.53;1.15;;;7.40;99.90;;;;;;5009227;28;20038;-75
2024/01/01 03:15:56;;;;;;;6.47;1.55;;;7.30;99.90;;;;;;4983704;28;20053;-75
2024/01/01 03:18:22;;;;;;;8.45;1.17;;;7.30;99.90;;;;;;4999236;28;20049;-75
2024/01/01 03:20:47;;;;;;;1.02;0.80;;;7.20;99.90;;;;;;4968297;28;20106;-75
2024/01/01 03:23:13;;;;;;;3.22;1.65;;;7.20;99.90;;;;;;4982689;28;20510;-75
2024/01/01 03:25:39;;;;;;;2.53;1.35;;;7.20;99.90;;;;;;5016007;28;20053;-75
2024/01/01 03:28:06;;;;;;;5.75;1.35;;;7.10;99.90;;;;;;4966978;28;20049;-75
2024/01/01 03:30:32;;;;;;;4.10;0.85;;;7.10;99.90;;;;;;4999742;28;20045;-75
2024/01/01 03:32:58;;;;;;;7.13;1.13;;;7.10;99.90;;;;;;5016042;28;20052;-75
2024/01/01 03:35:24;;;;;;;1.25;0.73;;;7.10;99.90;;;;;;4979571;28;20426;-75
2024/01/01 03:37:49;;;;;;;0.45;0.30;;;7.10;99.90;;;;;;4980582;28;20096;-75
2024/01/01 03:40:15;;;;;;;3.03;0.95;;;7.10;99.90;;;;;;4982170;28;20069;-75
2024/01/01 03:42:41;;;;;;;1.38;1.13;;;7.10;99.90;;;;;;4981536;28;20118;-75
2024/01/01 03:45:08;;;;;;;2.00;0.68;;;7.10;99.90;;;;;;4981068;28;20045;-75
2024/01/01 03:47:34;;;;;;;3.53;1.17;;;7.10;99.90;;;;;;4964021;28;20054;-75
2024/01/01 03:50:00;;;;;;;0.75;0.52;;;7.10;99.90;;;;;;5013725;28;20041;-75
2024/01/01 03:52:25;;;;;;;1.58;0.93;;;7.10;99.90;;;;;;5013367;28;20054;-75
2024/01/01 03:54:51;;;;;;;3.17;0.52;;;7.00;99.90;;;;;;4999548;28;20440;-75
2024/01/01 03:57:17;;;;;;;1.85;1.38;;;7.00;99.90;;;;;;4976985;28;20135;-75
2024/01/01 03:59:43;;;;;;;5.63;0.77;;;7.00;99.90;;;;;;4982897;28;20046;-75
2024/01/01 04:02:11;;;;;;;1.05;0.47;;;7.00;99.90;;;;;;4993119;28;20034;-75
2024/01/01 04:04:41;;;;;;;2.17;0.77;;;7.00;99.90;;;;;;4984023;28;20062;-75
2024/01/01 04:07:06;;;;;;;2.78;1.02;;;7.00;99.90;;;;;;5012742;28;20402;-74
2024/01/01 04:09:32;;;;;;;2.20;0.40;;;7.00;99.90;;;;;;4979609;28;20046;-75
2024/01/01 04:11:58;;;;;;;4.05;1.60;;;7.00;99.90;;;;;;4980854;28;20090;-75
2024/01/01 04:14:25;;;;;;;0.55;0.40;;;7.00;99.90;;;;;;4980192;28;20052;-75
2024/01/01 04:16:50;;;;;;;2.15;0.70;;;7.00;99.90;;;;;;4981631;28;20048;-75
2024/01/01 04:19:16;;;;;;;2.38;0.88;;;7.00;99.90;;;;;;5014578;28;20482;-75
2024/01/01 04:21:42;;;;;;;1.75;0.95;;;7.00;99.90;;;;;;4983063;28;20037;-75
2024/01/01 04:24:08;;;;;;;7.30;1.35;;;7.00;99.90;;;;;;4997790;28;20048;-75
2024/01/01 04:26:33;;;;;;;2.92;0.88;;;7.00;99.90;;;;;;4981302;28;20067;-75
2024/01/01 04:28:59;;;;;;;0.88;0.60;;;6.90;99.90;;;;;;5012990;28;20050;-75
2024/01/01 04:31:25;;;;;;;1.02;0.47;;;6.90;99.90;;;;;;4996711;28;20110;-75
2024/01/01 04:33:50;;;;;;;1.67;0.63;;;6.90;99.90;;;;;;4999477;28;20117;-75
2024/01/01 04:36:17;;;;;;;10.32;0.85;;;6.90;99.90;;;;;;4986402;28;20072;-75
2024/01/01 04:38:43;;;;;;;5.18;0.90;;;6.90;99.90;;;;;;4984834;28;20043;-75
2024/01/01 04:41:09;;;;;;;5.60;0.98;;;6.90;99.90;;;;;;5013175;28;20065;-75
2024/01/01 04:43:40;;;;;;;0.73;0.73;;;6.90;99.90;;;;;;4964326;28;20118;-75
2024/01/01 04:46:09;;;;;;;5.25;1.20;;;6.90;99.90;;;;;;4996202;28;20050;-75
2024/01/01 04:48:35;;;;;;;9.85;1.15;;;6.90;99.90;;;;;;4992498;28;20038;-75
2024/01/01 04:51:01;;;;;;;0.93;0.60;;;6.90;99.90;;;;;;4998480;28;20038;-75
2024/01/01 04:53:26;;;;;;;0.55;0.50;;;7.00;99.90;;;;;;4980788;28;20045;-75
2024/01/01 04:55:52;;;;;;;6.05;1.13;;;7.00;99.90;;;;;;4997977;28;20042;-75
2024/01/01 04:58:18;;;;;;;8.65;1.00;;;7.00;99.90;;;;;;4980759;28;20050;-75
2024/01/01 05:00:44;;;;;;;4.97;1.10;;;7.00;99.90;;;;;;5010762;28;20050;-76
2024/01/01 05:03:10;;;;;;;4.78;1.17;;;7.00;99.90;;;;;;4997064;28;20421;-76
2024/01/01 05:05:36;;;;;;;5.82;1.23;;;7.00;99.90;;;;;;4978019;28;20061;-76
2024/01/01 05:08:01;;;;;;;5.50;1.35;;;7.00;99.90;;;;;;4964776;28;20041;-76
2024/01/01 05:10:27;;;;;;;2.25;1.05;;;7.00;99.90;;;;;;4961923;28;20045;-76
2024/01/01 05:12:53;;;;;;;5.85;1.25;;;7.00;99.90;;;;;;5007605;28;20128;-76
2024/01/01 05:15:19;;;;;;;2.05;1.08;;;6.90;99.90;;;;;;5014124;28;20049;-76
2024/01/01 05:17:45;;;;;;;4.88;0.85;;;7.00;99.90;;;;;;4998367;28;20038;-76
2024/01/01 05:20:11;;;;;;;5.13;1.23;;;7.00;99.90;;;;;;5016266;28;20042;-76
2024/01/01 05:22:36;;;;;;;10.00;1.17;;;7.00;99.90;;;;;;5000657;28;20050;-76
2024/01/01 05:25:02;;;;;;;2.03;1.88;;;7.00;99.90;;;;;;5018116;28;20038;-77
2024/01/01 05:27:28;;;;;;;7.60;0.98;;;7.00;99.90;;;;;;4994881;28;20065;-76
2024/01/01 05:29:54;;;;;;;2.10;1.02;;;7.00;99.90;;;;;;4982203;28;20043;-76
2024/01/01 05:32:20;;;;;;;4.85;1.50;;;7.00;99.90;;;;;;4982876;28;20102;-76
2024/01/01 05:34:46;;;;;;;7.43;1.42;;;7.00;99.90;;;;;;4982206;28;20117;-76
2024/01/01 05:37:12;;;;;;;6.38;1.27;;;7.00;99.90;;;;;;5010766;28;20046;-76
2024/01/01 05:39:38;;;;;;;2.90;1.20;;;7.00;99.90;;;;;;5000258;28;20045;-77
2024/01/01 05:42:04;;;;;;;4.68;0.68;;;6.90;99.90;;;;;;5001047;28;20038;-77
2024/01/01 05:44:30;;;;;;;2.40;1.25;;;7.00;99.90;;;;;;4995801;28;20054;-77
2024/01/01 05:46:56;;;;;;;5.00;1.13;;;7.00;99.90;;;;;;5016933;28;20042;-77
2024/01/01 05:49:23;;;;;;;3.72;0.63;;;7.00;99.90;;;;;;5014109;28;21411;-77
2024/01/01 05:51:49;;;;;;;5.78;1.05;;;7.00;99.90;;;;;;5008792;28;20046;-77
2024/01/01 05:54:15;;;;;;;3.80;0.60;;;7.00;99.90;;;;;;5014627;28;20058;-77
2024/01/01 05:56:41;;;;;;;2.92;0.98;;;6.90;99.90;;;;;;5014271;28;20037;-78
2024/01/01 05:59:06;;;;;;;0.73;0.40;;;6.90;99.90;;;;;;4998136;28;20050;-77
2024/01/01 06:01:32;;;;;;;4.68;1.25;;;7.00;99.90;;;;;;5015095;28;20065;-77
2024/01/01 06:03:58;;;;;;;4.20;0.55;;;6.90;99.90;;;;;;4999955;28;20034;-77
2024/01/01 06:06:24;;;;;;;4.70;1.48;;;7.00;99.90;;;;;;4999542;28;20099;-77
2024/01/01 06:08:50;;;;;;;9.93;1.20;;;7.00;99.90;;;;;;4999528;28;20510;-77
2024/01/01 06:11:16;;;;;;;2.25;0.80;;;7.00;99.90;;;;;;4998329;28;20049;-77
2024/01/01 06:13:45;;;;;;;4.25;0.70;;;7.00;99.90;;;;;;4999620;28;20049;-77
2024/01/01 06:16:13;;;;;;;3.95;1.05;;;7.00;99.90;;;;;;4981227;28;20125;-77
2024/01/01 06:18:38;;;;;;;3.28;1.00;;;6.90;99.90;;;;;;5012772;28;20183;-77
2024/01/01 06:21:04;;;;;;;1.90;0.65;;;7.00;99.90;;;;;;5010981;28;20640;-77
2024/01/01 06:23:30;;;;;;;4.03;0.82;;;6.90;99.90;;;;;;4972236;28;20046;-78
2024/01/01 06:25:56;;;;;;;5.22;0.90;;;7.00;99.90;;;;;;5000248;28;20087;-78
2024/01/01 06:28:22;;;;;;;2.58;0.60;;;6.90;99.90;;;;;;5016264;28;20050;-78
2024/01/01 06:30:48;;;;;;;1.67;0.70;;;7.00;99.90;;;;;;4995398;28;20034;-77
2024/01/01 06:33:14;;;;;;;1.60;0.70;;;7.00;99.90;;;;;;5000187;28;20052;-77
2024/01/01 06:35:40;;;;;;;3.80;1.08;;;7.00;99.90;;;;;;5014909;28;20046;-77
2024/01/01 06:38:06;;;;;;;5.63;1.52;;;7.00;99.90;;;;;;5000284;28;20080;-79
2024/01/01 06:40:31;;;;;;;3.65;1.10;;;7.00;99.90;;;;;;5016089;28;20084;-78
2024/01/01 06:42:57;;;;;;;6.47;1.48;;;7.00;99.90;;;;;;5000151;28;20090;-78
2024/01/01 06:45:23;;;;;;;16.92;1.63;;;7.00;99.90;;;;;;5085785;28;20081;-78
2024/01/01 06:47:49;;;;;;;1.88;0.63;;;7.00;99.90;;;;;;4966695;28;20117;-78
2024/01/01 06:50:15;;;;;;;3.88;0.80;;;7.00;99.90;;;;;;5015639;28;20045;-78
2024/01/01 06:52:41;;;;;;;10.00;0.88;;;7.00;99.90;;;;;;5009315;28;20414;-78
2024/01/01 06:55:06;;;;;;;6.25;0.98;;;7.00;99.90;;;;;;5016724;28;20077;-78
2024/01/01 06:57:32;;;;;;;6.75;1.10;;;6.90;99.90;;;;;;5015269;28;20058;-79
2024/01/01 06:59:58;;;;;;;3.92;0.70;;;6.90;99.90;;;;;;4999255;28;20070;-78
2024/01/01 07:02:25;;;;;;;1.55;0.82;;;6.90;99.90;;;;;;5013133;28;20065;-79
2024/01/01 07:04:51;;;;;;;3.40;0.98;;;6.90;99.90;;;;;;5013892;28;20042;-79
2024/01/01 07:07:17;;;;;;;0.98;0.90;;;6.90;99.90;;;;;;4999747;28;20041;-79
2024/01/01 07:09:43;;;;;;;1.73;0.47;;;6.90;99.90;;;;;;5015593;28;20046;-78
2024/01/01 07:12:27;;;;;;;0.77;0.40;;;6.90;99.90;;;;;;5015240;28;20042;-78
2024/01/01 07:14:53;;;;;;;6.05;0.77;;;6.90;99.90;;;;;;5015100;28;20046;-78
2024/01/01 07:17:20;;;;;;;1.50;0.70;;;6.90;99.90;;;;;;5016374;28;20046;-77
2024/01/01 07:19:46;;;;;;;6.20;0.98;;;6.90;99.90;;;;;;5015589;28;20053;-78
2024/01/01 07:22:12;;;;;;;2.78;0.65;;;6.90;99.90;;;;;;4999078;28;20059;-78
2024/01/01 07:24:38;;;;;;;6.15;1.50;;;6.90;99.90;;;;;;4980440;28;20070;-77
2024/01/01 07:27:04;;;;;;;3.10;1.02;;;6.90;99.90;;;;;;4979537;28;20398;-78
2024/01/01 07:29:30;;;;;;;3.67;0.60;;;6.90;99.90;;;;;;4999346;28;20058;-77
2024/01/01 07:31:56;;;;;;;2.47;0.90;;;6.90;99.90;;;;;;5015187;28;20057;-78
2024/01/01 07:34:22;;;;;;;4.40;1.10;;;6.90;99.90;;;;;;4999721;28;20046;-78
2024/01/01 07:36:48;;;;;;;5.40;1.38;;;6.90;99.90;;;;;;5015525;28;20049;-77
2024/01/01 07:39:19;;;;;;;2.58;0.98;;;6.90;99.90;;;;;;5015099;28;20054;-78
2024/01/01 07:41:48;;;;;;;12.27;1.75;;;6.90;99.90;;;;;;4999467;28;20046;-78
2024/01/01 07:44:14;;;;;;;2.78;1.00;;;6.90;99.90;;;;;;4981544;28;20050;-79
2024/01/01 07:46:41;;;;;;;4.43;0.95;;;6.90;99.90;;;;;;4998701;28;20056;-78
2024/01/01 07:49:07;;;;;;;2.42;0.90;;;6.90;99.90;;;;;;5014851;28;20057;-79
2024/01/01 07:51:35;;;;;;;2.38;1.15;;;6.90;99.90;;;;;;5011593;28;20042;-78
2024/01/01 07:54:01;;;;;;;4.18;1.27;;;6.90;99.90;;;;;;5014193;28;20046;-78
2024/01/01 07:56:28;;;;;;;4.03;1.13;;;6.90;99.90;;;;;;4996368;28;20066;-78
2024/01/01 07:58:54;;;;;;;1.85;0.90;;;6.90;99.90;;;;;;4999249;28;20120;-79
2024/01/01 08:01:20;;;;;;;6.13;0.93;;;6.90;99.90;;;;;;5013360;28;20069;-79
2024/01/01 08:03:46;;;;;;;7.05;1.10;;;7.00;99.90;;;;;;5013127;28;20038;-79
2024/01/01 08:06:12;;;;;;;3.50;1.30;;;7.00;99.90;;;;;;5014595;28;20117;-78
2024/01/01 08:08:38;;;;;;;3.13;0.80;;;7.00;99.90;;;;;;5013087;28;20046;-79
2024/01/01 08:11:03;;;;;;;10.05;1.45;;;7.00;99.90;;;;;;4997616;28;20077;-79
2024/01/01 08:13:29;;;;;;;5.07;1.15;;;7.00;99.90;;;;;;4981011;28;20379;-79
2024/01/01 08:15:55;;;;;;;6.32;1.42;;;7.00;99.90;;;;;;4996220;28;20042;-78
2024/01/01 08:18:21;;;;;;;1.63;0.85;;;7.00;99.90;;;;;;4992148;28;20041;-78
2024/01/01 08:20:46;;;;;;;15.30;1.60;;;7.00;99.90;;;;;;5014300;28;20042;-78
2024/01/01 08:23:12;;;;;;;5.22;1.33;;;7.10;99.90;;;;;;4996732;28;20061;-78
2024/01/01 08:25:39;;;;;;;3.30;1.05;;;7.10;99.90;;;;;;5028845;28;20043;-79
2024/01/01 08:28:05;;;;;;;2.22;1.02;;;7.10;99.90;;;;;;4997766;28;20037;-79
2024/01/01 08:30:31;;;;;;;7.63;1.38;;;7.10;99.90;;;;;;5012167;28;20041;-79
2024/01/01 08:32:58;;;;;;;7.30;1.17;;;7.10;99.90;;;;;;4998872;28;20059;-79
2024/01/01 08:35:23;;;;;;;2.42;1.05;;;7.10;99.90;;;;;;4994689;28;20038;-79
2024/01/01 08:37:49;;;;;;;4.32;2.05;;;7.20;99.90;;;;;;4996278;28;20110;-78
2024/01/01 08:40:15;;;;;;;6.60;0.88;;;7.20;99.90;;;;;;4993164;28;20050;-78
2024/01/01 08:42:41;;;;;;;1.83;0.93;;;7.20;99.90;;;;;;4994284;28;20050;-78
2024/01/01 08:45:07;;;;;;;8.77;1.13;;;7.20;99.90;;;;;;4994659;28;20049;-78
2024/01/01 08:47:33;;;;;;;6.45;1.13;;;7.20;99.90;;;;;;5011393;28;20053;-79
2024/01/01 08:49:59;;;;;;;4.00;0.73;;;7.20;99.90;;;;;;4991726;28;20047;-78
2024/01/01 08:52:25;;;;;;;0.77;0.77;;;7.30;99.90;;;;;;5001782;28;20046;-78
2024/01/01 08:54:51;;;;;;;1.92;1.10;;;7.30;99.90;;;;;;4998314;28;20052;-78
2024/01/01 08:57:16;;;;;;;7.60;1.20;;;7.30;99.90;;;;;;5014386;28;20070;-78
2024/01/01 08:59:42;;;;;;;3.85;1.35;;;7.30;99.90;;;;;;4998793;28;20068;-77
2024/01/01 09:02:09;;;;;;;2.17;0.90;;;7.30;99.90;;;;;;5003067;28;20151;-78
2024/01/01 09:04:35;;;;;;;1.67;0.85;;;7.30;99.90;;;;;;5011806;28;20057;-78
2024/01/01 09:07:02;;;;;;;3.80;0.60;;;7.30;99.90;;;;;;4983335;28;20046;-78
2024/01/01 09:09:28;;;;;;;1.05;1.05;;;7.40;99.90;;;;;;5008247;28;20089;-78
2024/01/01 09:11:54;;;;;;;3.85;1.08;;;7.50;99.90;;;;;;5001696;28;20038;-78
2024/01/01 09:14:20;;;;;;;3.50;1.20;;;7.60;99.90;;;;;;5017153;28;20063;-78
2024/01/01 09:16:47;;;;;;;7.47;1.00;;;7.50;99.90;;;;;;5018092;28;20054;-78
2024/01/01 09:19:14;;;;;;;3.90;1.25;;;7.50;99.90;;;;;;5017566;28;20132;-78
2024/01/01 09:21:40;;;;;;;1.75;0.95;;;7.50;99.90;;;;;;4986565;28;20038;-78
2024/01/01 09:24:09;;;;;;;5.97;1.15;;;7.60;99.90;;;;;;5017958;28;20049;-78
2024/01/01 09:26:35;;;;;;;1.88;1.38;;;7.60;99.90;;;;;;5001178;28;20517;-78
2024/01/01 09:29:01;;;;;;;4.88;0.88;;;7.70;99.90;;;;;;4987829;28;20067;-78
2024/01/01 09:31:27;;;;;;;4.13;0.90;;;7.80;99.90;;;;;;4983948;28;20042;-78
2024/01/01 09:33:55;;;;;;;3.30;1.00;;;8.00;99.90;;;;;;5001306;28;20045;-77
2024/01/01 09:36:20;;;;;;;3.55;0.90;;;8.00;99.90;;;;;;5000529;28;20473;-78
2024/01/01 09:38:46;;;;;;;4.25;0.73;;;8.00;99.90;;;;;;5011714;28;20057;-77
2024/01/01 09:41:13;;;;;;;0.65;0.63;;;7.90;99.90;;;;;;4984747;28;20042;-78
2024/01/01 09:43:39;;;;;;;4.13;0.65;;;7.80;99.90;;;;;;5017195;28;20046;-79
2024/01/01 09:46:05;;;;;;;2.70;0.55;;;7.80;99.90;;;;;;5000963;28;20091;-77
2024/01/01 09:48:31;;;;;;;2.65;1.05;;;7.70;99.90;;;;;;5000293;28;20046;-78
2024/01/01 09:50:57;;;;;;;5.55;1.38;;;7.60;99.90;;;;;;5016247;28;20049;-78
2024/01/01 09:53:23;;;;;;;7.15;1.13;;;7.60;99.90;;;;;;4999581;28;20056;-78
2024/01/01 09:55:53;;;;;;;7.68;1.15;;;7.50;99.90;;;;;;4999780;28;20088;-77
2024/01/01 09:58:19;;;;;;;7.50;1.45;;;7.40;99.90;;;;;;5015720;28;20449;-77
2024/01/01 10:00:45;;;;;;;4.68;0.73;;;7.40;99.90;;;;;;4996254;28;20115;-77
2024/01/01 10:03:11;;;;;;;2.00;0.38;;;7.40;99.90;;;;;;5016249;28;20038;-77
2024/01/01 10:05:38;;;;;;;3.92;0.95;;;7.40;99.90;;;;;;4997434;28;20044;-77
2024/01/01 10:08:09;;;;;;;1.75;0.93;;;7.30;99.90;;;;;;4997041;28;20506;-77
2024/01/01 10:10:36;;;;;;;1.83;0.52;;;7.40;99.90;;;;;;5014667;28;20143;-77
2024/01/01 10:13:09;;;;;;;1.50;0.50;;;7.30;99.90;;;;;;5016364;28;20053;-78
2024/01/01 10:15:38;;;;;;;0.80;0.60;;;7.40;99.90;;;;;;5013293;28;20050;-78
2024/01/01 10:18:15;;;;;;;6.78;0.93;;;7.30;99.90;;;;;;5016320;28;20452;-78
2024/01/01 10:20:43;;;;;;;4.22;0.95;;;7.30;99.90;;;;;;5017502;28;20057;-78
2024/01/01 10:23:20;;;;;;;3.13;1.10;;;7.40;99.90;;;;;;4999347;28;20034;-78
2024/01/01 10:25:51;;;;;;;2.67;1.10;;;7.50;99.90;;;;;;4999284;28;20082;-77
2024/01/01 10:28:17;;;;;;;4.53;1.10;;;7.50;99.90;;;;;;4994520;28;20046;-77
2024/01/01 10:30:47;;;;;;;2.80;1.02;;;7.50;99.90;;;;;;5016077;28;20038;-77
2024/01/01 10:33:17;;;;;;;2.38;0.68;;;7.50;99.90;;;;;;5000862;28;20060;-77
2024/01/01 10:35:43;;;;;;;5.63;1.15;;;7.40;99.90;;;;;;5082825;28;20054;-77
2024/01/01 10:38:17;;;;;;;7.10;1.40;;;7.30;99.90;;;;;;5015507;28;20137;-77
2024/01/01 10:40:46;;;;;;;4.88;0.77;;;7.40;99.90;;;;;;5015150;28;20071;-77
2024/01/01 10:43:13;;;;;;;0.90;0.57;;;7.50;99.90;;;;;;4984208;28;20088;-77
2024/01/01 10:45:39;;;;;;;4.95;1.05;;;7.50;99.90;;;;;;5000511;28;20064;-77
2024/01/01 10:48:06;;;;;;;3.60;0.82;;;7.60;99.90;;;;;;4998038;28;20041;-77
2024/01/01 10:50:39;;;;;;;6.95;1.20;;;7.60;99.90;;;;;;4999578;28;20056;-77
2024/01/01 10:53:41;;;;;;;3.90;0.90;;;7.60;99.90;;;;;;4999375;28;20631;-77
2024/01/01 10:56:18;;;;;;;3.45;0.63;;;7.50;99.90;;;;;;5029118;28;20080;-77
2024/01/01 10:59:15;;;;;;;2.03;0.40;;;7.50;99.90;;;;;;4985007;28;20070;-77
2024/01/01 11:01:43;;;;;;;1.25;0.50;;;7.50;99.90;;;;;;5013310;28;20056;-77
2024/01/01 11:04:12;;;;;;;3.40;0.75;;;7.50;99.90;;;;;;4984308;28;20038;-77
2024/01/01 11:06:44;;;;;;;2.05;0.70;;;7.40;99.90;;;;;;4990173;28;20045;-77
2024/01/01 11:09:19;;;;;;;2.13;0.45;;;7.40;99.90;;;;;;4998408;28;20080;-77
2024/01/01 11:11:49;;;;;;;0.57;0.43;;;7.40;99.90;;;;;;5015782;28;20053;-77
2024/01/01 11:14:41;;;;;;;0.30;0.20;;;7.40;99.90;;;;;;5015689;28;20049;-77
2024/01/01 11:17:07;;;;;;;4.47;0.80;;;7.40;99.90;;;;;;4999675;28;20049;-77
2024/01/01 11:19:36;;;;;;;9.15;0.85;;;7.40;99.90;;;;;;4999192;28;20045;-77
2024/01/01 11:22:20;;;;;;;3.17;0.73;;;7.50;99.90;;;;;;4999278;28;20065;-77
2024/01/01 11:24:47;;;;;;;1.95;1.00;;;7.60;99.90;;;;;;5016712;28;20053;-77
2024/01/01 11:27:29;;;;;;;5.22;1.23;;;7.60;99.90;;;;;;4998809;28;20054;-77
2024/01/01 11:30:06;;;;;;;3.50;0.75;;;7.70;99.90;;;;;;5013637;28;20034;-77
2024/01/01 11:32:32;;;;;;;4.60;0.60;;;7.80;99.90;;;;;;4998290;28;20052;-77
2024/01/01 11:35:13;;;;;;;3.50;1.05;;;7.90;99.90;;;;;;4982309;28;20046;-77
2024/01/01 11:37:44;;;;;;;3.65;0.47;;;7.90;99.90;;;;;;4994146;28;20045;-77
2024/01/01 11:40:11;;;;;;;2.20;0.65;;;7.90;99.90;;;;;;4998322;28;20054;-77
2024/01/01 11:42:37;;;;;;;4.18;0.68;;;7.90;99.90;;;;;;5016078;28;20041;-77
2024/01/01 11:45:07;;;;;;;3.72;0.75;;;7.90;99.90;;;;;;4998663;28;20038;-77
2024/01/01 11:47:34;;;;;;;3.03;0.47;;;7.90;99.90;;;;;;4980028;28;20034;-77
2024/01/01 11:50:04;;;;;;;5.53;0.68;;;7.90;99.90;;;;;;4982571;28;20121;-76
2024/01/01 11:52:30;;;;;;;6.90;1.00;;;8.00;99.90;;;;;;5012793;28;20488;-77
2024/01/01 11:54:56;;;;;;;8.40;1.27;;;8.00;99.90;;;;;;5015732;28;20042;-76
2024/01/01 11:57:22;;;;;;;4.97;0.75;;;8.00;99.90;;;;;;4996782;28;20085;-77
2024/01/01 11:59:49;;;;;;;0.25;0.25;;;8.10;99.90;;;;;;5014081;28;20058;-76
2024/01/01 12:02:18;;;;;;;5.10;1.10;;;8.10;99.90;;;;;;4995761;28;20028;-76
2024/01/01 12:04:50;;;;;;;2.25;0.63;;;8.10;99.90;;;;;;4998966;28;20042;-76
2024/01/01 12:07:45;;;;;;;7.28;0.70;;;8.20;99.90;;;;;;4988135;28;20395;-76
2024/01/01 12:10:14;;;;;;;0.88;0.68;;;8.20;99.90;;;;;;4979394;28;20118;-77
2024/01/01 12:12:44;;;;;;;3.03;1.20;;;8.20;99.90;;;;;;4993445;28;20041;-77
2024/01/01 12:15:17;;;;;;;4.63;1.10;;;8.10;99.90;;;;;;5015050;28;20515;-77
2024/01/01 12:17:49;;;;;;;4.72;1.10;;;8.10;99.90;;;;;;5023858;28;20050;-77
2024/01/01 12:20:19;;;;;;;10.27;1.02;;;8.00;99.90;;;;;;5012610;28;20041;-77
2024/01/01 12:22:48;;;;;;;4.63;1.05;;;7.90;99.90;;;;;;4994624;28;21800;-77
2024/01/01 12:25:22;;;;;;;4.13;0.93;;;7.80;99.90;;;;;;4996912;28;20041;-76
2024/01/01 12:28:03;;;;;;;1.85;0.60;;;7.80;99.90;;;;;;4981341;28;20056;-76
2024/01/01 12:30:29;;;;;;;6.05;0.60;;;7.80;99.90;;;;;;4994473;28;20126;-76
2024/01/01 12:32:57;;;;;;;5.65;0.73;;;7.80;99.90;;;;;;4989816;28;20602;-76
2024/01/01 12:35:23;;;;;;;5.03;0.85;;;7.80;99.90;;;;;;5011841;28;20432;-76
2024/01/01 12:37:49;;;;;;;1.00;0.52;;;7.90;99.90;;;;;;5013679;28;20069;-76
2024/01/01 12:40:15;;;;;;;1.55;0.45;;;7.80;99.90;;;;;;4981339;28;20065;-76
2024/01/01 12:42:41;;;;;;;8.75;1.08;;;7.90;99.90;;;;;;4980319;28;20042;-76
2024/01/01 12:45:07;;;;;;;5.15;1.30;;;7.90;99.90;;;;;;4990934;28;20046;-76
2024/01/01 12:47:33;;;;;;;4.47;0.82;;;7.90;99.90;;;;;;4996547;28;20046;-76
2024/01/01 12:49:59;;;;;;;1.42;0.60;;;7.90;99.90;;;;;;4970164;28;20038;-76
2024/01/01 12:52:24;;;;;;;2.83;0.90;;;7.90;99.90;;;;;;4977753;28;20050;-76
2024/01/01 12:54:50;;;;;;;5.35;1.10;;;8.00;99.90;;;;;;4981283;28;20046;-76